createdAt,value
2022-08-25T00:01:23.193Z,94213.28
2022-08-25T00:03:55.122Z,94210.56
2022-08-25T00:06:24.414Z,94210.56
2022-08-25T00:08:52.128Z,94220.63
2022-08-25T00:11:24.185Z,94214.38
2022-08-25T00:13:54.094Z,94222.56
2022-08-25T00:16:22.445Z,94214.38
2022-08-25T00:18:51.679Z,94213.56
2022-08-25T00:21:19.506Z,94213.56
2022-08-25T00:23:47.273Z,94211.94
2022-08-25T00:26:15.607Z,94207.28
2022-08-25T00:28:44.914Z,94208.38
2022-08-25T00:31:13.481Z,94208.38
2022-08-25T00:33:41.288Z,94211.09
2022-08-25T00:36:09.593Z,94212.72
2022-08-25T00:38:38.258Z,94210.31
2022-08-25T00:41:08.617Z,94212.72
2022-08-25T00:43:38.087Z,94204.88
2022-08-25T00:46:07.438Z,94206.75
2022-08-25T00:48:36.621Z,94206.75
2022-08-25T00:51:04.516Z,94205.13
2022-08-25T00:53:32.238Z,94202.41
2022-08-25T00:55:59.916Z,94202.41
2022-08-25T00:58:28.059Z,94200.53
2022-08-25T01:00:57.601Z,94196.97
2022-08-25T01:03:31.543Z,94195.88
2022-08-25T01:06:01.248Z,94191.53
2022-08-25T01:08:29.308Z,94188.81
2022-08-25T01:11:00.460Z,94192.63
2022-08-25T01:13:31.830Z,94195.34
2022-08-25T01:15:59.554Z,94193.72
2022-08-25T01:18:28.933Z,94196.97
2022-08-25T01:20:58.173Z,94195.34
2022-08-25T01:23:25.978Z,94188.81
2022-08-25T01:25:58.915Z,94189.09
2022-08-25T01:28:26.557Z,94183.38
2022-08-25T01:30:54.418Z,94186.09
2022-08-25T01:33:23.714Z,94181.75
2022-08-25T01:35:51.434Z,94181.75
2022-08-25T01:38:21.214Z,94171.94
2022-08-25T01:40:50.838Z,94176.59
2022-08-25T01:43:26.769Z,94176.59
2022-08-25T01:45:54.483Z,94171.16
2022-08-25T01:48:22.235Z,94179.03
2022-08-25T01:50:49.956Z,94176.59
2022-08-25T01:53:23.278Z,94173.56
2022-08-25T01:55:55.788Z,94172.78
2022-08-25T01:58:25.117Z,94175.50
2022-08-25T02:00:54.515Z,94172.78
2022-08-25T02:03:22.592Z,94177.41
2022-08-25T02:05:50.290Z,94171.16
2022-08-25T02:08:18.124Z,94170.31
2022-08-25T02:10:47.831Z,94172.22
2022-08-25T02:13:15.572Z,94178.50
2022-08-25T02:15:44.441Z,94173.88
2022-08-25T02:18:12.177Z,94172.22
2022-08-25T02:20:39.926Z,94174.94
2022-08-25T02:23:07.650Z,94171.44
2022-08-25T02:25:35.367Z,94173.06
2022-08-25T02:28:05.138Z,94164.31
2022-08-25T02:30:33.132Z,94169.78
2022-08-25T02:33:00.914Z,94165.16
2022-08-25T02:35:29.642Z,94158.88
2022-08-25T02:37:57.339Z,94156.16
2022-08-25T02:40:25.111Z,94162.44
2022-08-25T02:42:53.026Z,94158.88
2022-08-25T02:45:22.128Z,94157.25
2022-08-25T02:47:49.880Z,94162.69
2022-08-25T02:50:17.590Z,94165.44
2022-08-25T02:52:45.336Z,94168.16
2022-08-25T02:55:14.321Z,94165.44
2022-08-25T02:57:42.906Z,94159.97
2022-08-25T03:00:11.637Z,94164.59
2022-08-25T03:02:42.399Z,94156.75
2022-08-25T03:05:10.891Z,94154.81
2022-08-25T03:07:39.222Z,94156.75
2022-08-25T03:10:08.718Z,94153.72
2022-08-25T03:12:36.653Z,94156.44
2022-08-25T03:15:04.881Z,94156.44
2022-08-25T03:17:36.894Z,94154.00
2022-08-25T03:20:07.245Z,94155.91
2022-08-25T03:22:34.997Z,94150.47
2022-08-25T03:25:18.961Z,94149.66
2022-08-25T03:27:51.854Z,94143.41
2022-08-25T03:30:19.842Z,94141.50
2022-08-25T03:32:47.577Z,94140.69
2022-08-25T03:35:16.646Z,94145.03
2022-08-25T03:37:44.522Z,94144.22
2022-08-25T03:40:15.318Z,94146.94
2022-08-25T03:42:45.100Z,94155.13
2022-08-25T03:45:13.778Z,94148.84
2022-08-25T03:47:42.141Z,94153.47
2022-08-25T03:50:11.232Z,94154.28
2022-08-25T03:52:42.642Z,94150.75
2022-08-25T03:55:11.670Z,94154.56
2022-08-25T03:57:39.588Z,94151.84
2022-08-25T04:00:09.021Z,94160.28
2022-08-25T04:02:36.741Z,94152.13
2022-08-25T04:05:04.626Z,94156.47
2022-08-25T04:07:32.693Z,94152.13
2022-08-25T04:10:01.830Z,94154.03
2022-08-25T04:12:29.642Z,94152.94
2022-08-25T04:14:59.278Z,94151.84
2022-08-25T04:17:27.039Z,94151.84
2022-08-25T04:19:54.704Z,94149.13
2022-08-25T04:22:22.533Z,94145.06
2022-08-25T04:24:50.885Z,94149.16
2022-08-25T04:27:20.107Z,94142.34
2022-08-25T04:29:47.841Z,94146.47
2022-08-25T04:32:15.586Z,94143.19
2022-08-25T04:34:43.461Z,94148.63
2022-08-25T04:37:11.537Z,94145.91
2022-08-25T04:39:39.214Z,94139.94
2022-08-25T04:42:07.164Z,94141.56
2022-08-25T04:44:36.233Z,94142.41
2022-08-25T04:47:04.036Z,94141.56
2022-08-25T04:49:31.956Z,94139.94
2022-08-25T04:51:59.648Z,94135.91
2022-08-25T04:54:28.160Z,94142.72
2022-08-25T04:56:58.732Z,94143.28
2022-08-25T04:59:29.995Z,94141.66
2022-08-25T05:02:02.137Z,94137.31
2022-08-25T05:04:30.032Z,94139.19
2022-08-25T05:06:57.909Z,94148.19
2022-08-25T05:09:25.593Z,94145.47
2022-08-25T05:11:53.506Z,94152.28
2022-08-25T05:14:25.749Z,94147.09
2022-08-25T05:16:54.273Z,94151.47
2022-08-25T05:19:23.884Z,94148.50
2022-08-25T05:21:51.654Z,94160.75
2022-08-25T05:24:19.456Z,94154.50
2022-08-25T05:26:47.169Z,94159.13
2022-08-25T05:29:15.610Z,94147.44
2022-08-25T05:31:50.128Z,94153.16
2022-08-25T05:34:18.762Z,94149.63
2022-08-25T05:36:48.252Z,94148.00
2022-08-25T05:39:16.050Z,94154.25
2022-08-25T05:41:43.769Z,94152.34
2022-08-25T05:44:12.665Z,94148.81
2022-08-25T05:46:40.489Z,94150.44
2022-08-25T05:49:08.162Z,94145.28
2022-08-25T05:51:35.853Z,94145.56
2022-08-25T05:54:05.364Z,94132.22
2022-08-25T05:56:33.061Z,94142.84
2022-08-25T05:59:00.770Z,94141.75
2022-08-25T06:01:46.870Z,94141.75
2022-08-25T06:04:14.864Z,94144.19
2022-08-25T06:06:42.557Z,94143.38
2022-08-25T06:09:11.652Z,94146.91
2022-08-25T06:11:39.960Z,94143.09
2022-08-25T06:14:08.249Z,94143.09
2022-08-25T06:16:36.189Z,94141.19
2022-08-25T06:19:04.067Z,94139.56
2022-08-25T06:21:31.866Z,94139.56
2022-08-25T06:23:59.653Z,94137.66
2022-08-25T06:26:28.781Z,94139.00
2022-08-25T06:28:56.462Z,94135.19
2022-08-25T06:31:24.567Z,94134.38
2022-08-25T06:33:52.873Z,94133.56
2022-08-25T06:36:20.602Z,94142.53
2022-08-25T06:38:48.676Z,94147.41
2022-08-25T06:41:16.596Z,94141.97
2022-08-25T06:43:49.792Z,94142.78
2022-08-25T06:46:18.855Z,94141.19
2022-08-25T06:48:46.608Z,94134.34
2022-08-25T06:51:15.865Z,94132.44
2022-08-25T06:53:43.832Z,94132.19
2022-08-25T06:56:11.754Z,94137.31
2022-08-25T06:58:39.676Z,94132.41
2022-08-25T07:01:14.886Z,94133.22
2022-08-25T07:03:43.855Z,94125.88
2022-08-25T07:06:11.536Z,94130.22
2022-08-25T07:08:39.524Z,94135.38
2022-08-25T07:11:07.450Z,94132.41
2022-08-25T07:13:43.985Z,94132.09
2022-08-25T07:16:15.283Z,94135.91
2022-08-25T07:18:43.070Z,94136.75
2022-08-25T07:21:12.173Z,94130.22
2022-08-25T07:23:39.895Z,94138.06
2022-08-25T07:26:27.133Z,94132.63
2022-08-25T07:28:59.729Z,94137.28
2022-08-25T07:31:29.850Z,94137.28
2022-08-25T07:34:15.394Z,94144.34
2022-08-25T07:36:44.410Z,94142.44
2022-08-25T07:39:12.125Z,94133.19
2022-08-25T07:41:40.610Z,94133.19
2022-08-25T07:44:08.564Z,94136.69
2022-08-25T07:46:37.681Z,94132.88
2022-08-25T07:49:09.204Z,94139.16
2022-08-25T07:52:05.743Z,94132.88
2022-08-25T07:54:35.144Z,94137.22
2022-08-25T07:57:03.362Z,94127.97
2022-08-25T07:59:31.162Z,94126.88
2022-08-25T08:02:18.416Z,94130.69
2022-08-25T08:04:48.502Z,94128.53
2022-08-25T08:07:17.445Z,94125.81
2022-08-25T08:09:45.143Z,94128.22
2022-08-25T08:12:13.535Z,94122.78
2022-08-25T08:14:44.978Z,94129.84
2022-08-25T08:17:15.280Z,94127.97
2022-08-25T08:19:45.278Z,94122.00
2022-08-25T08:22:15.434Z,94120.91
2022-08-25T08:24:54.415Z,94122.78
2022-08-25T08:27:23.696Z,94118.97
2022-08-25T08:29:52.236Z,94117.06
2022-08-25T08:32:21.386Z,94117.06
2022-08-25T08:34:53.179Z,94115.16
2022-08-25T08:37:22.957Z,94115.97
2022-08-25T08:39:52.755Z,94121.41
2022-08-25T08:42:32.726Z,94122.22
2022-08-25T08:45:06.416Z,94126.88
2022-08-25T08:47:44.931Z,94133.94
2022-08-25T08:50:23.949Z,94132.00
2022-08-25T08:52:57.523Z,94127.38
2022-08-25T08:55:27.928Z,94132.84
2022-08-25T08:57:59.315Z,94134.44
2022-08-25T09:00:27.412Z,94129.00
2022-08-25T09:02:58.753Z,94136.06
2022-08-25T09:05:28.683Z,94133.34
2022-08-25T09:07:58.194Z,94134.97
2022-08-25T09:10:27.101Z,94124.09
2022-08-25T09:12:58.852Z,94118.66
2022-08-25T09:15:51.072Z,94119.47
2022-08-25T09:18:26.798Z,94123.00
2022-08-25T09:21:03.708Z,94118.38
2022-08-25T09:23:40.365Z,94118.38
2022-08-25T09:26:27.272Z,94124.63
2022-08-25T09:28:59.515Z,94120.00
2022-08-25T09:31:29.839Z,94114.56
2022-08-25T09:34:01.114Z,94112.63
2022-08-25T09:36:33.130Z,94108.84
2022-08-25T09:39:03.273Z,94104.22
2022-08-25T09:41:43.099Z,94110.47
2022-08-25T09:44:18.196Z,94102.31
2022-08-25T09:46:57.120Z,94102.31
2022-08-25T09:49:37.555Z,94102.31
2022-08-25T09:52:20.065Z,94098.50
2022-08-25T09:54:50.123Z,94095.78
2022-08-25T09:57:33.813Z,94097.41
2022-08-25T10:00:16.318Z,94087.31
2022-08-25T10:02:44.854Z,94090.59
2022-08-25T10:05:23.446Z,94085.38
2022-08-25T10:07:53.449Z,94082.41
2022-08-25T10:10:25.797Z,94078.31
2022-08-25T10:12:53.485Z,94070.94
2022-08-25T10:15:29.956Z,94071.47
2022-08-25T10:17:59.921Z,94070.34
2022-08-25T10:20:35.066Z,94066.25
2022-08-25T10:23:10.842Z,94071.44
2022-08-25T10:25:38.486Z,94070.59
2022-08-25T10:28:15.420Z,94066.00
2022-08-25T10:30:50.434Z,94070.34
2022-08-25T10:33:21.129Z,94065.16
2022-08-25T10:35:55.895Z,94067.88
2022-08-25T10:38:36.142Z,94066.78
2022-08-25T10:41:10.768Z,94064.91
2022-08-25T10:43:44.707Z,94058.34
2022-08-25T10:46:16.140Z,94055.63
2022-08-25T10:48:55.381Z,94062.69
2022-08-25T10:51:41.852Z,94061.06
2022-08-25T10:54:18.705Z,94053.69
2022-08-25T10:56:53.128Z,94057.25
2022-08-25T10:59:30.281Z,94054.53
2022-08-25T11:02:12.333Z,94049.09
2022-08-25T11:04:41.015Z,94056.41
2022-08-25T11:07:13.350Z,94046.34
2022-08-25T11:09:42.220Z,94043.91
2022-08-25T11:12:11.450Z,94042.03
2022-08-25T11:14:41.351Z,94049.34
2022-08-25T11:17:11.866Z,94054.81
2022-08-25T11:19:40.747Z,94035.75
2022-08-25T11:22:12.734Z,94043.91
2022-08-25T11:24:48.640Z,94043.63
2022-08-25T11:27:19.636Z,94037.38
2022-08-25T11:29:54.308Z,94035.47
2022-08-25T11:32:24.746Z,94039.00
2022-08-25T11:34:52.564Z,94042.53
2022-08-25T11:37:25.396Z,94041.72
2022-08-25T11:40:17.651Z,94043.34
2022-08-25T11:43:00.099Z,94042.78
2022-08-25T11:45:54.125Z,94047.13
2022-08-25T11:48:29.408Z,94039.75
2022-08-25T11:50:59.935Z,94042.19
2022-08-25T11:53:30.437Z,94045.72
2022-08-25T11:56:02.351Z,94043.81
2022-08-25T11:58:38.675Z,94047.38
2022-08-25T12:01:10.804Z,94039.22
2022-08-25T12:03:52.252Z,94041.94
2022-08-25T12:06:29.082Z,94045.44
2022-08-25T12:09:22.895Z,94045.44
2022-08-25T12:11:54.559Z,94038.09
2022-08-25T12:14:42.426Z,94037.00
2022-08-25T12:17:23.070Z,94039.41
2022-08-25T12:19:59.018Z,94045.69
2022-08-25T12:22:55.108Z,94023.91
2022-08-25T12:25:45.429Z,94033.19
2022-08-25T12:28:35.218Z,94034.81
2022-08-25T12:31:06.533Z,94029.34
2022-08-25T12:33:40.185Z,94032.88
2022-08-25T12:36:08.466Z,94021.19
2022-08-25T12:38:44.136Z,94025.53
2022-08-25T12:41:15.320Z,94028.25
2022-08-25T12:43:43.706Z,94023.59
2022-08-25T12:46:34.111Z,94018.16
2022-08-25T12:49:02.141Z,94016.53
2022-08-25T12:51:48.665Z,94008.38
2022-08-25T12:54:18.924Z,94014.63
2022-08-25T12:56:49.145Z,94017.38
2022-08-25T12:59:18.241Z,94024.72
2022-08-25T13:02:03.197Z,94016.53
2022-08-25T13:04:43.761Z,94022.81
2022-08-25T13:07:18.387Z,94015.44
2022-08-25T13:09:59.606Z,93999.09
2022-08-25T13:12:32.303Z,93997.47
2022-08-25T13:15:00.153Z,93994.75
2022-08-25T13:17:28.218Z,94000.19
2022-08-25T13:20:12.317Z,94001.81
2022-08-25T13:22:39.986Z,93995.59
2022-08-25T13:25:08.105Z,93994.75
2022-08-25T13:27:37.517Z,93992.88
2022-08-25T13:30:05.903Z,93989.31
2022-08-25T13:32:38.841Z,93987.41
2022-08-25T13:35:14.195Z,93989.31
2022-08-25T13:37:40.955Z,93986.06
2022-08-25T13:40:10.928Z,93986.59
2022-08-25T13:42:42.515Z,93986.59
2022-08-25T13:45:14.917Z,93987.41
2022-08-25T13:47:43.804Z,93979.25
2022-08-25T13:50:18.413Z,93977.31
2022-08-25T13:52:48.970Z,93972.97
2022-08-25T13:55:21.850Z,93972.97
2022-08-25T13:57:57.647Z,93976.81
2022-08-25T14:00:33.297Z,93974.91
2022-08-25T14:03:02.357Z,93971.06
2022-08-25T14:05:39.077Z,93969.69
2022-08-25T14:08:23.511Z,93971.84
2022-08-25T14:11:02.873Z,93965.22
2022-08-25T14:13:33.129Z,93965.38
2022-08-25T14:16:08.631Z,93970.50
2022-08-25T14:18:36.362Z,93973.69
2022-08-25T14:21:10.638Z,93970.88
2022-08-25T14:23:40.019Z,93972.22
2022-08-25T14:26:11.359Z,93971.13
2022-08-25T14:28:40.568Z,93966.78
2022-08-25T14:31:10.155Z,93970.31
2022-08-25T14:33:39.397Z,93968.69
2022-08-25T14:36:08.252Z,93962.44
2022-08-25T14:38:38.642Z,93963.22
2022-08-25T14:43:41.145Z,93957.06
2022-08-25T14:46:22.409Z,93958.13
2022-08-25T14:48:54.500Z,93954.63
2022-08-25T14:51:23.162Z,93957.63
2022-08-25T14:53:53.088Z,93966.09
2022-08-25T14:56:20.986Z,93957.41
2022-08-25T14:58:52.960Z,93953.88
2022-08-25T15:01:29.491Z,93950.31
2022-08-25T15:03:59.658Z,93947.59
2022-08-25T15:06:27.741Z,93945.19
2022-08-25T15:09:11.378Z,93944.34
2022-08-25T15:11:41.472Z,93941.13
2022-08-25T15:14:12.110Z,93941.13
2022-08-25T15:16:43.307Z,93939.50
2022-08-25T15:19:14.477Z,93930.81
2022-08-25T15:21:43.753Z,93929.97
2022-08-25T15:24:11.868Z,93935.16
2022-08-25T15:26:41.185Z,93935.44
2022-08-25T15:29:09.003Z,93928.38
2022-08-25T15:31:39.786Z,93927.56
2022-08-25T15:34:11.856Z,93937.38
2022-08-25T15:36:39.761Z,93928.69
2022-08-25T15:39:09.431Z,93931.69
2022-08-25T15:41:37.897Z,93925.13
2022-08-25T15:44:06.469Z,93930.88
2022-08-25T15:46:35.942Z,93928.16
2022-08-25T15:49:05.166Z,93928.97
2022-08-25T15:51:35.691Z,93925.44
2022-08-25T15:54:03.711Z,93930.06
2022-08-25T15:56:31.548Z,93924.63
2022-08-25T15:58:59.266Z,93929.22
2022-08-25T16:01:27.883Z,93933.88
2022-08-25T16:03:59.146Z,93925.72
2022-08-25T16:06:28.531Z,93925.44
2022-08-25T16:08:56.777Z,93925.63
2022-08-25T16:11:25.577Z,93919.84
2022-08-25T16:13:53.694Z,93920.00
2022-08-25T16:16:21.808Z,93912.28
2022-08-25T16:18:52.566Z,93908.09
2022-08-25T16:21:24.047Z,93914.56
2022-08-25T16:23:56.536Z,93913.88
2022-08-25T16:26:27.014Z,93918.16
2022-08-25T16:28:55.130Z,93924.03
2022-08-25T16:31:23.051Z,93914.69
2022-08-25T16:33:53.555Z,93905.31
2022-08-25T16:36:27.171Z,93908.28
2022-08-25T16:38:57.642Z,93910.09
2022-08-25T16:41:27.182Z,93903.78
2022-08-25T16:43:55.245Z,93908.34
2022-08-25T16:46:24.194Z,93906.91
2022-08-25T16:48:51.941Z,93907.13
2022-08-25T16:51:22.646Z,93905.41
2022-08-25T16:54:22.285Z,93905.66
2022-08-25T16:56:55.120Z,93907.78
2022-08-25T16:59:23.733Z,93903.63
2022-08-25T17:01:52.243Z,93897.63
2022-08-25T17:04:20.281Z,93894.28
2022-08-25T17:06:51.607Z,93894.81
2022-08-25T17:09:23.755Z,93896.13
2022-08-25T17:11:56.592Z,93890.38
2022-08-25T17:14:24.416Z,93899.88
2022-08-25T17:16:54.651Z,93890.59
2022-08-25T17:19:23.597Z,93893.00
2022-08-25T17:21:52.313Z,93887.25
2022-08-25T17:24:22.297Z,93886.97
2022-08-25T17:26:57.612Z,93889.88
2022-08-25T17:29:25.364Z,93888.75
2022-08-25T17:31:54.374Z,93892.81
2022-08-25T17:34:23.253Z,93898.00
2022-08-25T17:36:51.256Z,93897.66
2022-08-25T17:39:22.400Z,93897.66
2022-08-25T17:41:52.166Z,93905.56
2022-08-25T17:44:20.759Z,93900.09
2022-08-25T17:46:49.465Z,93896.88
2022-08-25T17:49:17.309Z,93903.13
2022-08-25T17:51:45.717Z,93902.53
2022-08-25T17:54:13.554Z,93904.66
2022-08-25T17:56:41.443Z,93907.91
2022-08-25T17:59:11.922Z,93898.59
2022-08-25T18:01:40.670Z,93907.28
2022-08-25T18:04:17.475Z,93902.66
2022-08-25T18:06:45.972Z,93906.19
2022-08-25T18:09:14.201Z,93907.78
2022-08-25T18:11:42.363Z,93908.31
2022-08-25T18:14:12.149Z,93900.94
2022-08-25T18:16:40.336Z,93906.41
2022-08-25T18:19:09.801Z,93915.41
2022-08-25T18:21:38.194Z,93909.13
2022-08-25T18:24:06.395Z,93915.41
2022-08-25T18:26:34.322Z,93917.03
2022-08-25T18:29:01.996Z,93915.97
2022-08-25T18:31:31.104Z,93915.81
2022-08-25T18:33:59.990Z,93925.41
2022-08-25T18:36:28.271Z,93918.94
2022-08-25T18:39:13.764Z,93916.28
2022-08-25T18:41:42.406Z,93922.63
2022-08-25T18:44:10.913Z,93915.34
2022-08-25T18:46:42.137Z,93916.53
2022-08-25T18:49:09.906Z,93919.06
2022-08-25T18:51:37.990Z,93917.22
2022-08-25T18:54:06.853Z,93913.19
2022-08-25T18:56:50.108Z,93915.66
2022-08-25T18:59:18.175Z,93922.50
2022-08-25T19:01:48.548Z,93922.28
2022-08-25T19:04:18.043Z,93918.56
2022-08-25T19:06:47.719Z,93918.34
2022-08-25T19:09:20.046Z,93907.22
2022-08-25T19:11:48.640Z,93913.25
2022-08-25T19:14:16.353Z,93918.19
2022-08-25T19:16:47.223Z,93914.16
2022-08-25T19:19:14.990Z,93911.22
2022-08-25T19:21:42.838Z,93909.88
2022-08-25T19:24:12.141Z,93915.66
2022-08-25T19:26:39.948Z,93918.66
2022-08-25T19:29:10.157Z,93925.50
2022-08-25T19:31:38.085Z,93921.16
2022-08-25T19:34:08.702Z,93928.84
2022-08-25T19:36:36.681Z,93924.78
2022-08-25T19:39:05.578Z,93913.34
2022-08-25T19:41:34.246Z,93921.03
2022-08-25T19:44:02.772Z,93920.22
2022-08-25T19:46:33.320Z,93917.78
2022-08-25T19:49:07.107Z,93920.81
2022-08-25T19:51:38.240Z,93921.13
2022-08-25T19:54:06.201Z,93924.13
2022-08-25T19:56:36.827Z,93915.44
2022-08-25T19:59:04.748Z,93928.56
2022-08-25T20:01:33.020Z,93922.28
2022-08-25T20:04:03.494Z,93926.94
2022-08-25T20:06:32.161Z,93933.50
2022-08-25T20:09:01.324Z,93925.59
2022-08-25T20:11:29.060Z,93931.84
2022-08-25T20:14:03.141Z,93928.59
2022-08-25T20:16:32.947Z,93927.81
2022-08-25T20:19:05.251Z,93934.38
2022-08-25T20:21:39.313Z,93935.47
2022-08-25T20:24:31.649Z,93940.09
2022-08-25T20:27:00.225Z,93931.13
2022-08-25T20:29:28.032Z,93924.34
2022-08-25T20:31:55.723Z,93931.69
2022-08-25T20:34:24.222Z,93924.34
2022-08-25T20:36:52.889Z,93933.63
2022-08-25T20:39:22.361Z,93931.19
2022-08-25T20:41:50.027Z,93933.91
2022-08-25T20:44:17.777Z,93933.13
2022-08-25T20:46:45.897Z,93935.00
2022-08-25T20:49:13.656Z,93934.22
2022-08-25T20:51:41.325Z,93945.91
2022-08-25T20:54:09.250Z,93927.94
2022-08-25T20:56:38.215Z,93936.13
2022-08-25T20:59:10.379Z,93938.03
2022-08-25T21:01:40.086Z,93938.03
2022-08-25T21:04:08.019Z,93935.59
2022-08-25T21:06:36.058Z,93934.00
2022-08-25T21:09:03.898Z,93934.00
2022-08-25T21:11:31.970Z,93927.72
2022-08-25T21:14:02.025Z,93934.00
2022-08-25T21:16:33.919Z,93930.44
2022-08-25T21:19:01.994Z,93932.38
2022-08-25T21:21:30.047Z,93925.81
2022-08-25T21:23:57.623Z,93925.31
2022-08-25T21:26:26.478Z,93931.53
2022-08-25T21:28:54.144Z,93935.34
2022-08-25T21:31:23.482Z,93931.00
2022-08-25T21:33:53.088Z,93932.63
2022-08-25T21:36:21.621Z,93936.44
2022-08-25T21:38:49.345Z,93931.00
2022-08-25T21:41:18.702Z,93931.00
2022-08-25T21:43:46.694Z,93932.91
2022-08-25T21:46:16.954Z,93933.72
2022-08-25T21:48:47.501Z,93931.28
2022-08-25T21:51:17.350Z,93931.28
2022-08-25T21:53:46.985Z,93927.75
2022-08-25T21:56:18.375Z,93931.28
2022-08-25T21:58:49.126Z,93933.22
2022-08-25T22:01:19.458Z,93935.13
2022-08-25T22:03:48.652Z,93935.13
2022-08-25T22:06:16.480Z,93934.31
2022-08-25T22:08:44.191Z,93934.31
2022-08-25T22:11:11.924Z,93932.69
2022-08-25T22:13:41.179Z,93934.31
2022-08-25T22:16:11.447Z,93931.88
2022-08-25T22:18:40.801Z,93932.69
2022-08-25T22:21:11.726Z,93929.47
2022-08-25T22:23:40.017Z,93925.63
2022-08-25T22:26:13.897Z,93927.53
2022-08-25T22:28:42.708Z,93919.34
2022-08-25T22:31:13.796Z,93924.00
2022-08-25T22:33:48.536Z,93922.38
2022-08-25T22:36:19.362Z,93914.19
2022-08-25T22:38:48.023Z,93923.19
2022-08-25T22:41:21.293Z,93919.63
2022-08-25T22:43:49.521Z,93921.56
2022-08-25T22:46:19.196Z,93914.19
2022-08-25T22:48:47.355Z,93917.75
2022-08-25T22:51:21.024Z,93919.63
2022-08-25T22:53:49.492Z,93917.75
2022-08-25T22:56:18.414Z,93914.50
2022-08-25T22:58:51.721Z,93915.28
2022-08-25T23:01:20.896Z,93919.94
2022-08-25T23:03:48.758Z,93912.88
2022-08-25T23:06:20.784Z,93914.78
2022-08-25T23:08:54.010Z,93912.88
2022-08-25T23:11:22.053Z,93910.94
2022-08-25T23:13:49.850Z,93909.66
2022-08-25T23:16:17.855Z,93906.91
2022-08-25T23:18:46.871Z,93907.72
2022-08-25T23:21:44.157Z,93906.91
2022-08-25T23:24:13.882Z,93906.09
2022-08-25T23:26:55.125Z,93909.66
2022-08-25T23:29:22.810Z,93906.09
2022-08-25T23:31:53.666Z,93910.75
2022-08-25T23:34:23.556Z,93906.38
2022-08-25T23:36:51.366Z,93907.19
2022-08-25T23:39:21.903Z,93901.75
2022-08-25T23:41:50.059Z,93898.22
2022-08-25T23:44:18.759Z,93900.94
2022-08-25T23:46:47.322Z,93891.69
2022-08-25T23:49:18.204Z,93902.03
2022-08-25T23:51:46.830Z,93890.34
2022-08-25T23:54:14.609Z,93894.97
2022-08-25T23:56:51.854Z,93892.25
2022-08-25T23:59:20.553Z,93897.69
